createdAt,value
2017-11-16T07:48:29.199Z,1017.56
2017-11-16T07:49:02.193Z,1017.57
2017-11-16T07:49:35.307Z,1017.55
2017-11-16T07:50:08.343Z,1017.56
2017-11-16T07:50:41.310Z,1017.58
2017-11-16T07:51:14.344Z,1017.59
2017-11-16T07:51:47.352Z,1017.56
2017-11-16T07:52:20.390Z,1017.57
2017-11-16T07:52:53.296Z,1017.58
2017-11-16T07:53:26.231Z,1017.57
2017-11-16T07:53:59.232Z,1017.59
2017-11-16T07:54:32.168Z,1017.61
2017-11-16T07:55:05.239Z,1017.62
2017-11-16T07:55:38.477Z,1017.62
2017-11-16T07:56:11.590Z,1017.65
2017-11-16T07:56:44.684Z,1017.67
2017-11-16T07:57:17.792Z,1017.64
2017-11-16T07:57:50.932Z,1017.65
2017-11-16T07:58:24.042Z,1017.68
2017-11-16T07:58:57.142Z,1017.68
2017-11-16T07:59:30.081Z,1017.65
2017-11-16T08:00:03.382Z,1017.66
2017-11-16T08:00:36.389Z,1017.66
2017-11-16T08:01:09.628Z,1017.66
2017-11-16T08:01:42.697Z,1017.67
2017-11-16T08:02:15.838Z,1017.67
2017-11-16T08:02:48.745Z,1017.65
2017-11-16T08:03:21.784Z,1017.68
2017-11-16T08:03:54.903Z,1017.66
2017-11-16T08:04:28.038Z,1017.66
2017-11-16T08:05:02.444Z,1017.68
2017-11-16T08:05:35.646Z,1017.64
2017-11-16T08:06:08.762Z,1017.67
2017-11-16T08:06:41.664Z,1017.65
2017-11-16T08:07:14.694Z,1017.61
2017-11-16T08:07:47.684Z,1017.61
2017-11-16T08:08:20.695Z,1017.61
2017-11-16T08:08:53.900Z,1017.63
2017-11-16T08:09:26.821Z,1017.60
2017-11-16T08:09:59.722Z,1017.58
2017-11-16T08:10:32.980Z,1017.58
2017-11-16T08:11:06.085Z,1017.60
2017-11-16T08:11:38.961Z,1017.62
2017-11-16T08:12:12.062Z,1017.57
2017-11-16T08:12:45.138Z,1017.55
2017-11-16T08:13:18.279Z,1017.56
2017-11-16T08:13:51.196Z,1017.57
2017-11-16T08:14:24.197Z,1017.58
2017-11-16T08:14:57.274Z,1017.57
2017-11-16T08:15:30.378Z,1017.64
2017-11-16T08:16:03.527Z,1017.62
2017-11-16T08:16:36.475Z,1017.64
2017-11-16T08:17:09.451Z,1017.63
2017-11-16T08:17:42.593Z,1017.66
2017-11-16T08:18:15.768Z,1017.68
2017-11-16T08:18:48.871Z,1017.68
2017-11-16T08:19:22.045Z,1017.68
2017-11-16T08:19:54.991Z,1017.71
2017-11-16T08:20:27.902Z,1017.70
2017-11-16T08:21:00.848Z,1017.68
2017-11-16T08:21:33.892Z,1017.70
2017-11-16T08:22:06.937Z,1017.73
2017-11-16T08:22:41.158Z,1017.76
2017-11-16T08:23:14.160Z,1017.72
2017-11-16T08:23:47.174Z,1017.73
2017-11-16T08:24:20.117Z,1017.71
2017-11-16T08:24:53.133Z,1017.72
2017-11-16T08:25:26.275Z,1017.73
2017-11-16T08:25:59.295Z,1017.74
2017-11-16T08:26:32.399Z,1017.75
2017-11-16T08:27:05.406Z,1017.73
2017-11-16T08:27:38.523Z,1017.75
2017-11-16T08:28:11.517Z,1017.79
2017-11-16T08:28:44.764Z,1017.77
2017-11-16T08:29:17.684Z,1017.77
2017-11-16T08:29:50.882Z,1017.80
2017-11-16T08:30:23.997Z,1017.82
2017-11-16T08:30:57.142Z,1017.84
2017-11-16T08:31:30.830Z,1017.82
2017-11-16T08:32:03.827Z,1017.86
2017-11-16T08:32:37.172Z,1017.88
2017-11-16T08:33:10.112Z,1017.81
2017-11-16T08:33:43.288Z,1017.84
2017-11-16T08:34:16.532Z,1017.84
2017-11-16T08:34:49.617Z,1017.87
2017-11-16T08:35:22.654Z,1017.89
2017-11-16T08:35:55.674Z,1017.86
2017-11-16T08:36:28.817Z,1017.88
2017-11-16T08:37:01.698Z,1017.88
2017-11-16T08:37:34.898Z,1017.88
2017-11-16T08:38:07.899Z,1017.91
2017-11-16T08:38:41.001Z,1017.89
2017-11-16T08:39:14.077Z,1017.85
2017-11-16T08:39:47.220Z,1017.87
2017-11-16T08:40:20.297Z,1017.91
2017-11-16T08:40:53.299Z,1017.92
2017-11-16T08:41:26.277Z,1017.92
2017-11-16T08:41:59.581Z,1017.89
2017-11-16T08:42:32.559Z,1017.90
2017-11-16T08:43:05.565Z,1017.89
2017-11-16T08:43:38.806Z,1017.89
2017-11-16T08:44:11.911Z,1017.89
2017-11-16T08:44:45.981Z,1017.90
2017-11-16T08:45:19.024Z,1017.91
2017-11-16T08:45:52.041Z,1017.85
2017-11-16T08:46:25.287Z,1017.89
2017-11-16T08:46:58.363Z,1017.86
2017-11-16T08:47:31.607Z,1017.88
2017-11-16T08:48:04.585Z,1017.88
2017-11-16T08:48:37.485Z,1017.86
2017-11-16T08:49:10.725Z,1017.89
2017-11-16T08:49:44.074Z,1017.87
2017-11-16T08:50:17.089Z,1017.89
2017-11-16T08:50:50.191Z,1017.90
2017-11-16T08:51:23.405Z,1017.90
2017-11-16T08:51:56.351Z,1017.88
2017-11-16T08:52:29.425Z,1017.89
2017-11-16T08:53:02.532Z,1017.89
2017-11-16T08:53:35.646Z,1017.88
2017-11-16T08:54:08.796Z,1017.88
2017-11-16T08:54:42.132Z,1017.90
2017-11-16T08:55:15.139Z,1017.86
2017-11-16T08:55:48.114Z,1017.88
2017-11-16T08:56:21.316Z,1017.87
2017-11-16T08:56:54.291Z,1017.91
2017-11-16T08:57:27.295Z,1017.91
2017-11-16T08:58:00.416Z,1017.92
2017-11-16T08:58:33.754Z,1017.90
2017-11-16T08:59:06.730Z,1017.91
2017-11-16T08:59:39.773Z,1017.87
2017-11-16T09:00:12.815Z,1017.88
2017-11-16T09:00:45.922Z,1017.87
2017-11-16T09:01:18.897Z,1017.89
2017-11-16T09:01:52.001Z,1017.89
2017-11-16T09:02:25.112Z,1017.90
2017-11-16T09:02:58.317Z,1017.89
2017-11-16T09:03:31.592Z,1017.85
2017-11-16T09:04:04.597Z,1017.90
2017-11-16T09:04:37.570Z,1017.88
2017-11-16T09:05:10.679Z,1017.87
2017-11-16T09:05:43.878Z,1017.88
2017-11-16T09:06:17.124Z,1017.86
2017-11-16T09:06:50.139Z,1017.82
2017-11-16T09:07:23.384Z,1017.82
2017-11-16T09:07:56.357Z,1017.85
2017-11-16T09:08:29.664Z,1017.81
2017-11-16T09:09:02.636Z,1017.81
2017-11-16T09:09:35.851Z,1017.80
2017-11-16T09:10:08.926Z,1017.85
2017-11-16T09:10:42.266Z,1017.81
2017-11-16T09:11:15.271Z,1017.80
2017-11-16T09:11:48.270Z,1017.83
2017-11-16T09:12:21.446Z,1017.81
2017-11-16T09:12:54.352Z,1017.81
2017-11-16T09:13:27.270Z,1017.82
2017-11-16T09:14:00.311Z,1017.79
2017-11-16T09:14:33.297Z,1017.79
2017-11-16T09:15:06.342Z,1017.80
2017-11-16T09:15:39.456Z,1017.79
2017-11-16T09:16:12.598Z,1017.80
2017-11-16T09:16:45.840Z,1017.77
2017-11-16T09:17:18.891Z,1017.75
2017-11-16T09:17:52.102Z,1017.76
2017-11-16T09:18:25.205Z,1017.73
2017-11-16T09:18:58.189Z,1017.74
2017-11-16T09:19:31.284Z,1017.70
2017-11-16T09:20:04.500Z,1017.67
2017-11-16T09:20:37.810Z,1017.70
2017-11-16T09:21:10.894Z,1017.72
2017-11-16T09:21:43.929Z,1017.69
2017-11-16T09:22:16.835Z,1017.70
2017-11-16T09:22:50.175Z,1017.71
2017-11-16T09:23:23.321Z,1017.72
2017-11-16T09:23:56.567Z,1017.72
2017-11-16T09:24:29.445Z,1017.73
2017-11-16T09:25:02.457Z,1017.75
2017-11-16T09:25:35.528Z,1017.70
2017-11-16T09:26:08.535Z,1017.68
2017-11-16T09:26:41.418Z,1017.72
2017-11-16T09:27:14.716Z,1017.74
2017-11-16T09:27:47.758Z,1017.70
2017-11-16T09:28:20.860Z,1017.70
2017-11-16T09:28:54.086Z,1017.68
2017-11-16T09:29:27.330Z,1017.69
2017-11-16T09:30:00.306Z,1017.72
2017-11-16T09:30:33.313Z,1017.69
2017-11-16T09:31:06.416Z,1017.74
2017-11-16T09:31:39.596Z,1017.72
2017-11-16T09:32:12.705Z,1017.72
2017-11-16T09:32:45.950Z,1017.72
2017-11-16T09:33:19.059Z,1017.72
2017-11-16T09:33:52.056Z,1017.69
2017-11-16T09:34:25.172Z,1017.71
2017-11-16T09:34:58.373Z,1017.73
2017-11-16T09:35:31.348Z,1017.67
2017-11-16T09:36:04.656Z,1017.67
2017-11-16T09:36:37.628Z,1017.70
2017-11-16T09:37:10.739Z,1017.65
2017-11-16T09:37:43.712Z,1017.64
2017-11-16T09:38:16.756Z,1017.64
2017-11-16T09:38:49.852Z,1017.65
2017-11-16T09:39:22.858Z,1017.64
2017-11-16T09:39:55.873Z,1017.68
2017-11-16T09:40:28.980Z,1017.68
2017-11-16T09:41:02.254Z,1017.68
2017-11-16T09:41:35.596Z,1017.66
2017-11-16T09:42:08.914Z,1017.68
2017-11-16T09:42:41.914Z,1017.69
2017-11-16T09:43:14.790Z,1017.67
2017-11-16T09:43:47.861Z,1017.69
2017-11-16T09:44:20.839Z,1017.69
2017-11-16T09:44:53.780Z,1017.68
2017-11-16T09:45:26.893Z,1017.65
2017-11-16T09:46:00.143Z,1017.63
2017-11-16T09:46:33.356Z,1017.67
2017-11-16T09:47:06.400Z,1017.66
2017-11-16T09:47:39.587Z,1017.63
2017-11-16T09:48:12.791Z,1017.65
2017-11-16T09:48:45.899Z,1017.63
2017-11-16T09:49:19.068Z,1017.61
2017-11-16T09:49:51.986Z,1017.61
2017-11-16T09:50:25.027Z,1017.62
2017-11-16T09:50:58.140Z,1017.61
2017-11-16T09:51:31.143Z,1017.64
2017-11-16T09:52:04.325Z,1017.62
2017-11-16T09:52:37.367Z,1017.57
2017-11-16T09:53:10.441Z,1017.61
2017-11-16T09:53:43.445Z,1017.61
2017-11-16T09:54:16.521Z,1017.62
2017-11-16T09:54:49.488Z,1017.57
2017-11-16T09:55:22.604Z,1017.59
2017-11-16T09:55:55.613Z,1017.61
2017-11-16T09:56:28.831Z,1017.61
2017-11-16T09:57:01.835Z,1017.60
2017-11-16T09:57:34.818Z,1017.65
2017-11-16T09:58:07.861Z,1017.60
2017-11-16T09:58:40.836Z,1017.66
2017-11-16T09:59:13.980Z,1017.63
2017-11-16T09:59:47.000Z,1017.62
2017-11-16T10:00:20.170Z,1017.62
2017-11-16T10:00:53.191Z,1017.63
2017-11-16T10:01:26.195Z,1017.62
2017-11-16T10:01:59.282Z,1017.61
2017-11-16T10:02:32.413Z,1017.62
2017-11-16T10:03:05.528Z,1017.60
2017-11-16T10:03:38.682Z,1017.61
2017-11-16T10:04:11.651Z,1017.62
2017-11-16T10:04:44.654Z,1017.62
2017-11-16T10:05:17.731Z,1017.65
2017-11-16T10:05:50.802Z,1017.59
2017-11-16T10:06:24.117Z,1017.62
2017-11-16T10:06:57.260Z,1017.61
2017-11-16T10:07:30.338Z,1017.60
2017-11-16T10:08:03.283Z,1017.59
2017-11-16T10:08:36.502Z,1017.59
2017-11-16T10:09:09.705Z,1017.56
2017-11-16T10:09:42.819Z,1017.57
2017-11-16T10:10:15.823Z,1017.55
2017-11-16T10:10:48.800Z,1017.54
2017-11-16T10:11:21.972Z,1017.51
2017-11-16T10:11:55.046Z,1017.49
2017-11-16T10:12:28.086Z,1017.48
2017-11-16T10:13:01.107Z,1017.45
2017-11-16T10:13:34.255Z,1017.43
2017-11-16T10:14:07.433Z,1017.42
2017-11-16T10:14:40.436Z,1017.45
2017-11-16T10:15:13.419Z,1017.45
2017-11-16T10:15:46.426Z,1017.42
2017-11-16T10:16:19.435Z,1017.42
2017-11-16T10:16:52.466Z,1017.46
2017-11-16T10:17:25.539Z,1017.41
2017-11-16T10:17:58.548Z,1017.37
2017-11-16T10:18:31.768Z,1017.41
2017-11-16T10:19:04.973Z,1017.37
2017-11-16T10:19:38.125Z,1017.34
2017-11-16T10:20:11.001Z,1017.38
2017-11-16T10:20:43.970Z,1017.35
2017-11-16T10:21:17.119Z,1017.35
2017-11-16T10:21:50.129Z,1017.31
2017-11-16T10:22:23.363Z,1017.29
2017-11-16T10:22:56.384Z,1017.27
2017-11-16T10:23:29.525Z,1017.29
2017-11-16T10:24:02.446Z,1017.29
2017-11-16T10:24:35.751Z,1017.27
2017-11-16T10:25:09.059Z,1017.28
2017-11-16T10:25:42.031Z,1017.24
2017-11-16T10:26:14.906Z,1017.25
2017-11-16T10:26:48.053Z,1017.24
2017-11-16T10:27:21.066Z,1017.22
2017-11-16T10:27:54.201Z,1017.22
2017-11-16T10:28:27.276Z,1017.21
2017-11-16T10:29:00.280Z,1017.24
2017-11-16T10:29:33.293Z,1017.16
2017-11-16T10:30:06.337Z,1017.18
2017-11-16T10:30:39.419Z,1017.17
2017-11-16T10:31:12.562Z,1017.19
2017-11-16T10:31:45.537Z,1017.18
2017-11-16T10:32:18.485Z,1017.16
2017-11-16T10:32:51.458Z,1017.14
2017-11-16T10:33:24.592Z,1017.16
2017-11-16T10:33:57.674Z,1017.16
2017-11-16T10:34:30.780Z,1017.15
2017-11-16T10:35:03.766Z,1017.15
2017-11-16T10:35:36.677Z,1017.15
2017-11-16T10:36:09.960Z,1017.12
2017-11-16T10:36:43.066Z,1017.11
2017-11-16T10:37:16.094Z,1017.06
2017-11-16T10:37:49.145Z,1017.06
2017-11-16T10:38:22.276Z,1017.05
2017-11-16T10:38:55.504Z,1017.06
2017-11-16T10:39:28.790Z,1017.04
2017-11-16T10:40:01.795Z,1017.11
2017-11-16T10:40:34.922Z,1017.04
2017-11-16T10:41:08.132Z,1017.06
2017-11-16T10:41:41.252Z,1017.06
2017-11-16T10:42:14.165Z,1017.03
2017-11-16T10:42:47.187Z,1017.05
2017-11-16T10:43:20.235Z,1017.06
2017-11-16T10:43:53.257Z,1017.04
2017-11-16T10:44:26.289Z,1017.05
2017-11-16T10:44:59.309Z,1017.03
2017-11-16T10:45:32.558Z,1017.04
2017-11-16T10:46:05.538Z,1017.02
2017-11-16T10:46:38.544Z,1017.01
2017-11-16T10:47:11.622Z,1017.01
2017-11-16T10:47:44.876Z,1017.04
2017-11-16T10:48:17.756Z,1016.99
2017-11-16T10:48:50.911Z,1017.05
2017-11-16T10:49:23.927Z,1017.03
2017-11-16T10:49:57.106Z,1017.01
2017-11-16T10:50:29.987Z,1017.03
2017-11-16T10:51:03.293Z,1017.05
2017-11-16T10:51:36.378Z,1017.06
2017-11-16T10:52:09.486Z,1017.05
2017-11-16T10:52:42.606Z,1017.05
2017-11-16T10:53:15.653Z,1017.09
2017-11-16T10:53:48.637Z,1017.06
2017-11-16T10:54:21.648Z,1017.09
2017-11-16T10:54:54.772Z,1017.09
2017-11-16T10:55:27.811Z,1017.09
2017-11-16T10:56:00.927Z,1017.09
2017-11-16T10:56:33.835Z,1017.12
2017-11-16T10:57:06.916Z,1017.15
2017-11-16T10:57:39.973Z,1017.14
2017-11-16T10:58:12.853Z,1017.13
2017-11-16T10:58:45.903Z,1017.15
2017-11-16T10:59:18.985Z,1017.16
2017-11-16T10:59:52.094Z,1017.16
2017-11-16T11:00:25.172Z,1017.17
2017-11-16T11:00:58.112Z,1017.14
2017-11-16T11:01:31.432Z,1017.14
2017-11-16T11:02:04.578Z,1017.09
2017-11-16T11:02:37.600Z,1017.17
2017-11-16T11:03:10.709Z,1017.15
2017-11-16T11:03:44.029Z,1017.12
2017-11-16T11:04:17.076Z,1017.13
2017-11-16T11:04:50.199Z,1017.16
2017-11-16T11:05:23.212Z,1017.19
2017-11-16T11:05:56.231Z,1017.15
2017-11-16T11:06:29.465Z,1017.18
2017-11-16T11:07:02.487Z,1017.16
2017-11-16T11:07:35.498Z,1017.18
2017-11-16T11:08:08.517Z,1017.18
2017-11-16T11:08:41.633Z,1017.17
2017-11-16T11:09:14.813Z,1017.20
2017-11-16T11:09:48.013Z,1017.16
2017-11-16T11:10:21.237Z,1017.18
2017-11-16T11:10:54.350Z,1017.20
2017-11-16T11:11:27.471Z,1017.22
2017-11-16T11:12:00.747Z,1017.17
2017-11-16T11:12:33.970Z,1017.19
2017-11-16T11:13:07.129Z,1017.15
2017-11-16T11:13:40.048Z,1017.16
2017-11-16T11:14:13.294Z,1017.13
2017-11-16T11:14:46.516Z,1017.12
2017-11-16T11:15:19.625Z,1017.14
2017-11-16T11:15:52.609Z,1017.12
2017-11-16T11:16:25.818Z,1017.09
2017-11-16T11:16:58.844Z,1017.11
2017-11-16T11:17:31.919Z,1017.13
2017-11-16T11:18:04.930Z,1017.10
2017-11-16T11:18:38.039Z,1017.12
2017-11-16T11:19:11.862Z,1017.13
2017-11-16T11:19:44.904Z,1017.15
2017-11-16T11:20:18.027Z,1017.14
2017-11-16T11:20:51.075Z,1017.17
2017-11-16T11:21:24.199Z,1017.17
2017-11-16T11:21:57.246Z,1017.12
2017-11-16T11:22:30.327Z,1017.13
2017-11-16T11:23:03.283Z,1017.14
2017-11-16T11:23:36.368Z,1017.11
2017-11-16T11:24:09.473Z,1017.15
2017-11-16T11:24:42.756Z,1017.16
2017-11-16T11:25:15.901Z,1017.11
2017-11-16T11:25:49.060Z,1017.15
2017-11-16T11:26:22.037Z,1017.12
2017-11-16T11:26:55.255Z,1017.13
2017-11-16T11:27:28.465Z,1017.13
2017-11-16T11:28:01.687Z,1017.14
2017-11-16T11:28:34.768Z,1017.12
2017-11-16T11:29:07.787Z,1017.16
2017-11-16T11:29:40.894Z,1017.13
2017-11-16T11:30:15.418Z,1017.13
2017-11-16T11:30:48.527Z,1017.11
2017-11-16T11:31:21.611Z,1017.10
2017-11-16T11:31:54.659Z,1017.11
2017-11-16T11:32:27.641Z,1017.10
2017-11-16T11:33:00.687Z,1017.13
2017-11-16T11:33:33.808Z,1017.13
2017-11-16T11:34:06.842Z,1017.10
2017-11-16T11:34:40.062Z,1017.10
2017-11-16T11:35:13.368Z,1017.12
2017-11-16T11:35:46.288Z,1017.10
2017-11-16T11:36:19.297Z,1017.12
2017-11-16T11:36:52.182Z,1017.10
2017-11-16T11:37:25.529Z,1017.07
2017-11-16T11:37:58.751Z,1017.08
2017-11-16T11:38:31.958Z,1017.09
2017-11-16T11:39:05.076Z,1017.07
2017-11-16T11:39:38.311Z,1017.04
2017-11-16T11:40:11.336Z,1017.07
2017-11-16T11:40:44.347Z,1017.06
2017-11-16T11:41:17.575Z,1017.03
2017-11-16T11:41:50.679Z,1017.00
2017-11-16T11:42:23.704Z,1017.03
2017-11-16T11:42:56.853Z,1017.02
2017-11-16T11:43:29.934Z,1017.05
2017-11-16T11:44:03.081Z,1017.03
2017-11-16T11:44:36.399Z,1017.03
2017-11-16T11:45:09.445Z,1017.00
2017-11-16T11:45:42.675Z,1017.02
2017-11-16T11:46:15.778Z,1017.02
2017-11-16T11:46:48.762Z,1017.01
2017-11-16T11:47:21.678Z,1017.03
2017-11-16T11:47:54.797Z,1016.99
2017-11-16T11:48:27.901Z,1017.01
2017-11-16T11:49:00.921Z,1017.01
2017-11-16T11:49:33.931Z,1017.04
2017-11-16T11:50:06.912Z,1017.04
2017-11-16T11:50:40.186Z,1017.03
2017-11-16T11:51:13.466Z,1017.03
2017-11-16T11:51:46.473Z,1017.01
2017-11-16T11:52:19.551Z,1017.01
2017-11-16T11:52:52.560Z,1017.01
2017-11-16T11:53:25.582Z,1017.05
2017-11-16T11:53:58.836Z,1017.04
2017-11-16T11:54:31.820Z,1017.05
2017-11-16T11:55:05.025Z,1017.05
2017-11-16T11:55:38.050Z,1017.06
2017-11-16T11:56:11.124Z,1017.02
2017-11-16T11:56:44.346Z,1017.01
2017-11-16T11:57:17.453Z,1017.01
2017-11-16T11:57:50.572Z,1017.02
2017-11-16T11:58:23.579Z,1017.04
2017-11-16T11:58:56.561Z,1017.03
2017-11-16T11:59:29.718Z,1017.03
2017-11-16T12:00:02.636Z,1017.04
2017-11-16T12:00:35.645Z,1016.98
2017-11-16T12:01:08.628Z,1017.02
2017-11-16T12:01:41.905Z,1017.01
2017-11-16T12:02:14.925Z,1017.04
2017-11-16T12:02:47.971Z,1017.04
2017-11-16T12:03:21.094Z,1017.01
2017-11-16T12:03:54.107Z,1017.03
2017-11-16T12:04:27.090Z,1017.09
2017-11-16T12:05:00.339Z,1017.08
2017-11-16T12:05:33.661Z,1017.06
2017-11-16T12:06:06.608Z,1017.01
2017-11-16T12:06:39.588Z,1017.03
2017-11-16T12:07:12.966Z,1017.04
2017-11-16T12:07:45.989Z,1017.01
2017-11-16T12:08:19.259Z,1017.02
2017-11-16T12:08:52.220Z,1016.99
2017-11-16T12:09:25.369Z,1017.03
2017-11-16T12:09:58.449Z,1017.02
2017-11-16T12:10:31.697Z,1017.01
2017-11-16T12:11:04.880Z,1016.99
2017-11-16T12:11:38.087Z,1017.00
2017-11-16T12:12:11.008Z,1016.97
2017-11-16T12:12:44.186Z,1016.98
2017-11-16T12:13:17.265Z,1017.03
2017-11-16T12:13:50.312Z,1016.99
2017-11-16T12:14:23.632Z,1016.99
2017-11-16T12:14:56.841Z,1016.98
2017-11-16T12:15:29.821Z,1017.01
2017-11-16T12:16:02.976Z,1016.95
2017-11-16T12:16:36.098Z,1016.99
2017-11-16T12:17:09.142Z,1016.98
2017-11-16T12:17:42.185Z,1016.95
2017-11-16T12:18:15.259Z,1016.99
2017-11-16T12:18:48.483Z,1016.99
2017-11-16T12:19:21.527Z,1016.94
2017-11-16T12:19:54.707Z,1016.96
2017-11-16T12:20:27.758Z,1016.97
2017-11-16T12:21:00.780Z,1016.94
2017-11-16T12:21:33.890Z,1016.96
2017-11-16T12:22:06.971Z,1016.96
2017-11-16T12:22:40.020Z,1016.95
2017-11-16T12:23:13.100Z,1016.94
2017-11-16T12:23:46.233Z,1016.94
2017-11-16T12:24:19.315Z,1016.96
2017-11-16T12:24:52.420Z,1016.92
2017-11-16T12:25:25.338Z,1016.96
2017-11-16T12:25:58.552Z,1016.94
2017-11-16T12:26:31.783Z,1016.91
2017-11-16T12:27:04.725Z,1016.90
2017-11-16T12:27:37.710Z,1016.93
2017-11-16T12:28:11.023Z,1016.91
2017-11-16T12:28:44.244Z,1016.91
2017-11-16T12:29:17.280Z,1016.90
2017-11-16T12:29:50.501Z,1016.90
2017-11-16T12:30:23.651Z,1016.90
2017-11-16T12:30:56.870Z,1016.88
2017-11-16T12:31:30.018Z,1016.87
2017-11-16T12:32:03.199Z,1016.89
2017-11-16T12:32:36.506Z,1016.90
2017-11-16T12:33:09.488Z,1016.86
2017-11-16T12:33:42.740Z,1016.87
2017-11-16T12:34:15.863Z,1016.84
2017-11-16T12:34:48.938Z,1016.83
2017-11-16T12:35:21.959Z,1016.83
2017-11-16T12:35:55.066Z,1016.84
2017-11-16T12:36:28.185Z,1016.81
2017-11-16T12:37:01.390Z,1016.79
2017-11-16T12:37:34.314Z,1016.78
2017-11-16T12:38:07.365Z,1016.75
2017-11-16T12:38:40.446Z,1016.75
2017-11-16T12:39:13.454Z,1016.72
2017-11-16T12:39:46.577Z,1016.71
2017-11-16T12:40:19.610Z,1016.67
2017-11-16T12:40:52.789Z,1016.71
2017-11-16T12:41:26.038Z,1016.68
2017-11-16T12:41:59.019Z,1016.64
2017-11-16T12:42:32.265Z,1016.66
2017-11-16T12:43:05.248Z,1016.62
2017-11-16T12:43:38.398Z,1016.60
2017-11-16T12:44:11.318Z,1016.58
2017-11-16T12:44:44.464Z,1016.56
2017-11-16T12:45:17.489Z,1016.57
2017-11-16T12:45:50.669Z,1016.54
2017-11-16T12:46:23.851Z,1016.53
2017-11-16T12:46:57.700Z,1016.48
2017-11-16T12:47:30.720Z,1016.47
2017-11-16T12:48:03.636Z,1016.47
2017-11-16T12:48:36.518Z,1016.46
2017-11-16T12:49:09.665Z,1016.41
2017-11-16T12:49:42.792Z,1016.40
2017-11-16T12:50:15.937Z,1016.43
2017-11-16T12:50:49.019Z,1016.41
2017-11-16T12:51:22.104Z,1016.41
2017-11-16T12:51:55.179Z,1016.39
2017-11-16T12:52:28.323Z,1016.41
2017-11-16T12:53:01.550Z,1016.38
2017-11-16T12:53:34.595Z,1016.41
2017-11-16T12:54:07.714Z,1016.44
2017-11-16T12:54:40.862Z,1016.41
2017-11-16T12:55:13.864Z,1016.41
2017-11-16T12:55:46.954Z,1016.40
2017-11-16T12:56:19.839Z,1016.35
2017-11-16T12:56:53.119Z,1016.40
2017-11-16T12:57:26.203Z,1016.41
2017-11-16T12:57:59.247Z,1016.38
2017-11-16T12:58:32.472Z,1016.38
2017-11-16T12:59:05.721Z,1016.41
2017-11-16T12:59:38.799Z,1016.43
2017-11-16T13:00:12.149Z,1016.40
2017-11-16T13:00:45.729Z,1016.38
2017-11-16T13:01:18.778Z,1016.40
2017-11-16T13:01:51.656Z,1016.38
2017-11-16T13:02:24.719Z,1016.43
2017-11-16T13:02:57.678Z,1016.40
2017-11-16T13:03:30.593Z,1016.39
2017-11-16T13:04:03.613Z,1016.40
2017-11-16T13:04:36.621Z,1016.39
2017-11-16T13:05:09.442Z,1016.43
2017-11-16T13:05:42.489Z,1016.41
2017-11-16T13:06:15.711Z,1016.43
2017-11-16T13:06:48.768Z,1016.43
2017-11-16T13:07:21.847Z,1016.44
2017-11-16T13:07:58.079Z,1016.46
2017-11-16T13:08:30.961Z,1016.41
2017-11-16T13:09:03.916Z,1016.39
2017-11-16T13:09:36.933Z,1016.43
2017-11-16T13:10:09.942Z,1016.38
2017-11-16T13:10:42.927Z,1016.35
2017-11-16T13:11:15.839Z,1016.34
2017-11-16T13:11:48.923Z,1016.35
2017-11-16T13:12:21.828Z,1016.33
2017-11-16T13:12:55.056Z,1016.32
2017-11-16T13:13:28.098Z,1016.35
2017-11-16T13:14:01.076Z,1016.35
2017-11-16T13:14:34.223Z,1016.35
2017-11-16T13:15:07.147Z,1016.33
2017-11-16T13:15:40.298Z,1016.37
2017-11-16T13:16:13.319Z,1016.36
2017-11-16T13:16:46.476Z,1016.35
2017-11-16T13:17:19.656Z,1016.35
2017-11-16T13:17:52.706Z,1016.35
2017-11-16T13:18:25.927Z,1016.34
2017-11-16T13:18:58.961Z,1016.33
2017-11-16T13:19:31.984Z,1016.32
2017-11-16T13:20:05.001Z,1016.32
2017-11-16T13:20:38.525Z,1016.34
2017-11-16T13:21:11.729Z,1016.28
2017-11-16T13:21:44.953Z,1016.32
2017-11-16T13:22:17.864Z,1016.30
2017-11-16T13:22:50.885Z,1016.33
2017-11-16T13:23:23.797Z,1016.30
2017-11-16T13:23:56.978Z,1016.34
2017-11-16T13:24:30.012Z,1016.33
2017-11-16T13:25:03.940Z,1016.32
2017-11-16T13:25:36.848Z,1016.33
2017-11-16T13:26:10.031Z,1016.32
2017-11-16T13:26:44.040Z,1016.33
2017-11-16T13:27:17.059Z,1016.35
2017-11-16T13:27:53.177Z,1016.34
2017-11-16T13:28:26.203Z,1016.33
2017-11-16T13:28:59.415Z,1016.33
2017-11-16T13:29:32.524Z,1016.35
2017-11-16T13:30:05.675Z,1016.35
2017-11-16T13:30:38.853Z,1016.30
2017-11-16T13:31:11.965Z,1016.27
2017-11-16T13:31:45.190Z,1016.30
2017-11-16T13:32:18.343Z,1016.33
2017-11-16T13:32:51.360Z,1016.29
2017-11-16T13:33:24.412Z,1016.29
2017-11-16T13:33:57.434Z,1016.31
2017-11-16T13:34:30.555Z,1016.28
2017-11-16T13:35:03.661Z,1016.27
2017-11-16T13:35:37.012Z,1016.22
2017-11-16T13:36:10.095Z,1016.25
2017-11-16T13:36:43.402Z,1016.26
2017-11-16T13:37:16.385Z,1016.25
2017-11-16T13:37:49.433Z,1016.24
2017-11-16T13:38:22.613Z,1016.23
2017-11-16T13:38:55.959Z,1016.23
2017-11-16T13:39:28.879Z,1016.21
2017-11-16T13:40:02.042Z,1016.21
2017-11-16T13:40:35.578Z,1016.19
2017-11-16T13:41:08.584Z,1016.23
2017-11-16T13:41:41.565Z,1016.21
2017-11-16T13:42:14.671Z,1016.18
2017-11-16T13:42:47.650Z,1016.16
2017-11-16T13:43:20.799Z,1016.16
2017-11-16T13:43:53.786Z,1016.15
2017-11-16T13:44:26.835Z,1016.15
2017-11-16T13:44:59.918Z,1016.17
2017-11-16T13:45:33.034Z,1016.15
2017-11-16T13:46:06.145Z,1016.15
2017-11-16T13:46:39.155Z,1016.12
2017-11-16T13:47:12.151Z,1016.15
2017-11-16T13:47:45.102Z,1016.12
2017-11-16T13:48:18.222Z,1016.14
2017-11-16T13:48:51.474Z,1016.15
2017-11-16T13:49:24.502Z,1016.13
2017-11-16T13:49:57.550Z,1016.15
2017-11-16T13:50:30.637Z,1016.15
2017-11-16T13:51:03.665Z,1016.10
2017-11-16T13:51:36.779Z,1016.11
2017-11-16T13:52:09.893Z,1016.11
2017-11-16T13:52:42.915Z,1016.07
2017-11-16T13:53:15.969Z,1016.06
2017-11-16T13:53:48.996Z,1016.07
2017-11-16T13:54:22.107Z,1016.08
2017-11-16T13:54:55.033Z,1016.07
2017-11-16T13:55:28.146Z,1016.02
2017-11-16T13:56:01.365Z,1015.99
2017-11-16T13:56:34.375Z,1016.01
2017-11-16T13:57:07.430Z,1016.01
2017-11-16T13:57:40.587Z,1016.02
2017-11-16T13:58:13.919Z,1016.00
2017-11-16T13:58:47.032Z,1016.00
2017-11-16T13:59:20.017Z,1015.94
2017-11-16T13:59:53.063Z,1015.95
2017-11-16T14:00:26.186Z,1015.96
2017-11-16T14:00:59.240Z,1015.97
2017-11-16T14:01:32.222Z,1015.96
2017-11-16T14:02:05.272Z,1015.95
2017-11-16T14:02:41.497Z,1015.91
2017-11-16T14:03:14.827Z,1015.93
2017-11-16T14:03:47.949Z,1015.96
2017-11-16T14:04:20.994Z,1015.96
2017-11-16T14:04:54.020Z,1015.97
2017-11-16T14:05:27.072Z,1015.94
2017-11-16T14:06:00.192Z,1015.91
2017-11-16T14:06:33.210Z,1015.89
2017-11-16T14:07:06.208Z,1015.96
2017-11-16T14:07:39.259Z,1015.91
2017-11-16T14:08:12.311Z,1015.93
2017-11-16T14:08:45.330Z,1015.90
2017-11-16T14:09:18.354Z,1015.89
2017-11-16T14:09:51.567Z,1015.90
2017-11-16T14:10:24.590Z,1015.88
2017-11-16T14:10:57.742Z,1015.88
2017-11-16T14:11:30.862Z,1015.91
2017-11-16T14:12:03.914Z,1015.89
2017-11-16T14:12:36.897Z,1015.89
2017-11-16T14:13:09.852Z,1015.90
2017-11-16T14:13:42.762Z,1015.89
2017-11-16T14:14:16.015Z,1015.84
2017-11-16T14:14:49.041Z,1015.85
2017-11-16T14:15:22.195Z,1015.81
2017-11-16T14:15:55.380Z,1015.84
2017-11-16T14:16:28.392Z,1015.79
2017-11-16T14:17:01.419Z,1015.78
2017-11-16T14:17:34.567Z,1015.81
2017-11-16T14:18:07.893Z,1015.77
2017-11-16T14:18:41.051Z,1015.83
2017-11-16T14:19:13.964Z,1015.79
2017-11-16T14:19:47.078Z,1015.84
2017-11-16T14:20:20.103Z,1015.85
2017-11-16T14:20:53.211Z,1015.83
2017-11-16T14:21:26.298Z,1015.86
2017-11-16T14:21:59.502Z,1015.84
2017-11-16T14:22:32.743Z,1015.88
2017-11-16T14:23:05.793Z,1015.83
2017-11-16T14:23:38.811Z,1015.82
2017-11-16T14:24:11.824Z,1015.82
2017-11-16T14:24:44.876Z,1015.82
2017-11-16T14:25:17.986Z,1015.84
2017-11-16T14:25:51.010Z,1015.83
2017-11-16T14:26:24.164Z,1015.81
2017-11-16T14:26:57.184Z,1015.78
2017-11-16T14:27:30.203Z,1015.79
2017-11-16T14:28:03.279Z,1015.79
2017-11-16T14:28:36.291Z,1015.75